Time;durP1;ratioP1;P1;durP2;ratioP2;P2;SDS_P1;SDS_P2;PMS_P1;PMS_P2;Temp;Humidity;BMP_temperature;BMP_pressure;BME280_temperature;BME280_humidity;BME280_pressure;Samples;Min_cycle;Max_cycle;Signal;HPM_P1;HPM_P2
2022/06/14 00:01:56;;;;;;;1.35;0.60;;;11.10;99.90;;;;;;4952550;28;20410;-85
2022/06/14 00:04:22;;;;;;;2.92;0.70;;;11.50;99.90;;;;;;4947675;29;20055;-88
2022/06/14 00:06:47;;;;;;;1.33;0.50;;;11.10;99.90;;;;;;4962986;28;20411;-90
2022/06/14 00:09:13;;;;;;;6.28;0.70;;;11.10;99.90;;;;;;4949395;28;20082;-87
2022/06/14 00:11:39;;;;;;;2.65;0.82;;;11.10;99.90;;;;;;4964591;28;20055;-87
2022/06/14 00:14:07;;;;;;;2.40;0.65;;;11.00;99.90;;;;;;4965232;28;20043;-88
2022/06/14 00:16:34;;;;;;;1.85;0.57;;;11.10;99.90;;;;;;4947006;28;20194;-87
2022/06/14 00:19:01;;;;;;;2.45;0.85;;;11.00;99.90;;;;;;4965819;28;20050;-89
2022/06/14 00:21:27;;;;;;;3.17;0.85;;;11.10;99.90;;;;;;4948045;28;20494;-87
2022/06/14 00:23:53;;;;;;;2.95;0.73;;;11.50;99.90;;;;;;4963705;28;20129;-88
2022/06/14 00:26:19;;;;;;;2.53;0.73;;;11.00;99.90;;;;;;4951111;29;20122;-83
2022/06/14 00:28:45;;;;;;;2.35;0.70;;;11.00;99.90;;;;;;4951610;28;20059;-88
2022/06/14 00:31:23;;;;;;;2.33;0.60;;;10.90;99.90;;;;;;4955338;28;20488;-89
2022/06/14 00:33:49;;;;;;;2.25;0.63;;;10.90;99.90;;;;;;4947674;28;20055;-86
2022/06/14 00:36:28;;;;;;;4.63;0.88;;;11.10;99.90;;;;;;4964870;28;20043;-85
2022/06/14 00:38:55;;;;;;;3.08;0.60;;;10.90;99.90;;;;;;4964487;28;20097;-84
2022/06/14 00:41:39;;;;;;;5.43;0.70;;;11.40;99.90;;;;;;4961802;28;20067;-85
2022/06/14 00:44:10;;;;;;;3.90;0.70;;;11.00;99.90;;;;;;4953715;28;20447;-84
2022/06/14 00:46:43;;;;;;;6.60;0.88;;;11.70;99.90;;;;;;4961829;28;20050;-87
2022/06/14 00:49:19;;;;;;;3.38;0.70;;;10.90;99.90;;;;;;4963612;28;20043;-89
2022/06/14 00:51:55;;;;;;;;;;;10.80;99.90;;;;;;4965185;28;20051;-88
2022/06/14 00:54:25;;;;;;;5.65;0.65;;;10.80;99.90;;;;;;4944915;28;19923;-88
2022/06/14 00:57:23;;;;;;;3.35;0.90;;;10.90;99.90;;;;;;4951526;28;20469;-88
2022/06/14 00:59:57;;;;;;;4.32;0.70;;;10.80;99.90;;;;;;4942005;29;20059;-87
2022/06/14 01:02:30;;;;;;;2.53;0.80;;;10.80;99.90;;;;;;4966982;28;20047;-85
2022/06/14 01:05:03;;;;;;;3.22;0.80;;;11.30;99.90;;;;;;4967343;28;20527;-88
2022/06/14 01:07:35;;;;;;;3.97;0.50;;;11.10;99.90;;;;;;4962025;28;20118;-86
2022/06/14 01:10:12;;;;;;;0.95;0.50;;;10.80;99.90;;;;;;4961014;28;20047;-85
2022/06/14 01:12:50;;;;;;;2.83;0.60;;;10.80;99.90;;;;;;4945910;29;20703;-90
2022/06/14 01:15:19;;;;;;;4.30;0.70;;;10.70;99.90;;;;;;4974321;28;20050;-87
2022/06/14 01:17:51;;;;;;;2.42;0.85;;;10.70;99.90;;;;;;4971171;28;20416;-88
2022/06/14 01:20:20;;;;;;;2.38;0.70;;;10.70;99.90;;;;;;4966681;28;20054;-87
2022/06/14 01:22:47;;;;;;;1.75;0.85;;;10.70;99.90;;;;;;4964777;28;20065;-83
2022/06/14 01:25:13;;;;;;;1.58;0.57;;;10.70;99.90;;;;;;4965164;28;20371;-87
2022/06/14 01:27:41;;;;;;;7.30;1.80;;;10.70;99.90;;;;;;4967952;28;20360;-89
2022/06/14 01:30:12;;;;;;;1.80;0.50;;;10.70;99.90;;;;;;4966486;28;20117;-86
2022/06/14 01:32:48;;;;;;;2.03;0.60;;;10.80;99.90;;;;;;4963922;28;20054;-88
2022/06/14 01:35:18;;;;;;;2.35;0.60;;;11.20;99.90;;;;;;4949815;28;20136;-89
2022/06/14 01:37:47;;;;;;;5.97;1.58;;;10.80;99.90;;;;;;4969964;28;20039;-89
2022/06/14 01:40:13;;;;;;;2.17;0.63;;;10.90;99.90;;;;;;4954146;28;20047;-90
2022/06/14 01:43:03;;;;;;;1.58;0.60;;;10.90;99.90;;;;;;4950533;28;20039;-87
2022/06/14 01:45:46;;;;;;;3.33;0.55;;;10.90;99.90;;;;;;4947999;28;20170;-84
2022/06/14 01:48:34;;;;;;;3.10;0.60;;;11.00;99.90;;;;;;4950299;28;20093;-86
2022/06/14 01:54:08;;;;;;;2.58;0.80;;;11.00;99.90;;;;;;4966599;28;20054;-89
2022/06/14 01:56:48;;;;;;;3.72;1.02;;;11.00;99.90;;;;;;4966356;28;20054;-88
2022/06/14 01:59:40;;;;;;;1.30;0.70;;;11.00;99.90;;;;;;4964186;28;20552;-87
2022/06/14 02:02:21;;;;;;;3.08;0.60;;;11.00;99.90;;;;;;4965794;28;20126;-87
2022/06/14 02:05:11;;;;;;;3.53;0.60;;;11.00;99.90;;;;;;4964855;28;20143;-88
2022/06/14 02:08:03;;;;;;;4.80;0.70;;;10.90;99.90;;;;;;4965473;28;20102;-87
2022/06/14 02:10:44;;;;;;;3.03;1.00;;;11.00;99.90;;;;;;4975448;28;20042;-85
2022/06/14 02:13:55;;;;;;;2.03;0.63;;;11.70;99.90;;;;;;4967185;28;20051;-88
2022/06/14 02:16:27;;;;;;;1.88;0.75;;;10.80;99.90;;;;;;4961335;28;20062;-84
2022/06/14 02:19:06;;;;;;;3.90;0.90;;;11.00;99.90;;;;;;4969378;28;20125;-86
2022/06/14 02:21:43;;;;;;;3.55;0.60;;;10.80;99.90;;;;;;4984763;28;20046;-83
2022/06/14 02:24:33;;;;;;;2.63;0.80;;;10.70;99.90;;;;;;4987439;28;20046;-90
2022/06/14 02:27:09;;;;;;;2.97;1.10;;;10.70;99.90;;;;;;4976690;28;20069;-86
2022/06/14 02:29:43;;;;;;;4.07;1.58;;;10.70;99.90;;;;;;4965368;28;20038;-84
2022/06/14 02:32:22;;;;;;;2.25;0.75;;;10.60;99.90;;;;;;4972847;28;20483;-88
2022/06/14 02:35:06;;;;;;;3.22;1.08;;;10.60;99.90;;;;;;4967955;28;20395;-87
2022/06/14 02:37:47;;;;;;;2.47;0.90;;;10.60;99.90;;;;;;4947167;29;20114;-86
2022/06/14 02:40:31;;;;;;;3.95;0.90;;;10.60;99.90;;;;;;4954178;28;20051;-87
2022/06/14 02:43:04;;;;;;;3.60;1.08;;;10.50;99.90;;;;;;4970463;28;20046;-87
2022/06/14 02:45:39;;;;;;;3.05;1.02;;;10.50;99.90;;;;;;4966443;28;20043;-86
2022/06/14 02:48:11;;;;;;;4.15;0.90;;;10.50;99.90;;;;;;4949579;28;20407;-87
2022/06/14 02:50:40;;;;;;;2.67;0.85;;;10.50;99.90;;;;;;4967159;28;20062;-88
2022/06/14 02:53:20;;;;;;;1.83;0.80;;;10.50;99.90;;;;;;4966164;28;20047;-88
2022/06/14 02:55:54;;;;;;;2.63;1.20;;;10.50;99.90;;;;;;4962587;28;20057;-90
2022/06/14 02:58:22;;;;;;;4.90;1.35;;;10.50;99.90;;;;;;4953770;28;20074;-87
2022/06/14 03:00:50;;;;;;;3.28;0.90;;;11.20;99.90;;;;;;4965866;28;20043;-87
2022/06/14 03:03:24;;;;;;;2.28;0.80;;;10.80;99.90;;;;;;4955276;28;20043;-87
2022/06/14 03:05:57;;;;;;;4.28;0.70;;;10.40;99.90;;;;;;4950269;28;20535;-88
2022/06/14 03:08:33;;;;;;;4.43;1.17;;;10.40;99.90;;;;;;4947962;28;20129;-90
2022/06/14 03:10:58;;;;;;;;;;;10.40;99.90;;;;;;4973899;28;20047;-89
2022/06/14 03:13:32;;;;;;;3.65;1.08;;;10.40;99.90;;;;;;4948836;28;19929;-88
2022/06/14 03:16:31;;;;;;;2.97;0.77;;;10.40;99.90;;;;;;4960567;28;20047;-88
2022/06/14 03:19:19;;;;;;;3.72;0.75;;;10.40;99.90;;;;;;4943821;28;20133;-89
2022/06/14 03:21:51;;;;;;;2.63;0.80;;;10.80;99.90;;;;;;4971931;28;20121;-89
2022/06/14 03:28:37;;;;;;;2.70;0.80;;;10.40;99.90;;;;;;4963137;28;20412;-89
2022/06/14 03:31:12;;;;;;;3.08;0.77;;;10.40;99.90;;;;;;4967650;28;20067;-90
2022/06/14 03:33:57;;;;;;;1.60;0.73;;;11.10;99.90;;;;;;4963053;28;20136;-89
2022/06/14 03:36:23;;;;;;;3.17;0.90;;;10.40;99.90;;;;;;4964578;28;20057;-88
2022/06/14 03:38:59;;;;;;;5.35;1.20;;;10.50;99.90;;;;;;4968610;28;20137;-87
2022/06/14 03:41:29;;;;;;;2.70;0.93;;;10.40;99.90;;;;;;4963546;28;20039;-86
2022/06/14 03:43:58;;;;;;;2.50;0.60;;;11.20;99.90;;;;;;4949169;28;20054;-88
2022/06/14 03:46:37;;;;;;;2.05;0.80;;;11.30;99.90;;;;;;4965505;28;20498;-87
2022/06/14 03:49:15;;;;;;;1.38;0.60;;;10.40;99.90;;;;;;4967718;28;20108;-85
2022/06/14 03:51:50;;;;;;;3.75;0.70;;;10.60;99.90;;;;;;4961380;28;20553;-87
2022/06/14 03:54:43;;;;;;;2.65;0.90;;;10.40;99.90;;;;;;4950820;28;20479;-84
2022/06/14 03:57:27;;;;;;;2.25;0.70;;;10.40;99.90;;;;;;4962257;28;20182;-86
2022/06/14 04:00:47;;;;;;;3.17;1.10;;;10.40;99.90;;;;;;4965456;28;20043;-87
2022/06/14 04:03:44;;;;;;;3.05;0.90;;;10.40;99.90;;;;;;4854723;29;20526;-86
2022/06/14 04:06:29;;;;;;;;;;;10.40;99.90;;;;;;4859870;29;20143;-87
2022/06/14 04:09:15;;;;;;;4.50;0.80;;;10.40;99.90;;;;;;4872376;29;20013;-85
2022/06/14 04:12:17;;;;;;;4.38;1.40;;;10.40;99.90;;;;;;4873610;29;20170;-87
2022/06/14 04:14:45;;;;;;;7.63;2.30;;;10.50;99.90;;;;;;4868249;29;20042;-87
2022/06/14 04:17:46;;;;;;;3.42;0.75;;;10.50;99.90;;;;;;4878571;29;20041;-84
2022/06/14 04:20:25;;;;;;;2.05;0.60;;;10.50;99.90;;;;;;4791725;29;20051;-87
2022/06/14 04:23:09;;;;;;;4.18;1.00;;;10.50;99.90;;;;;;4801839;29;20153;-88
2022/06/14 04:25:50;;;;;;;4.32;0.80;;;10.60;99.90;;;;;;4801785;29;20055;-89
2022/06/14 04:28:18;;;;;;;3.97;0.95;;;10.60;99.90;;;;;;4787096;29;20491;-86
2022/06/14 04:31:15;;;;;;;3.38;0.70;;;10.70;99.90;;;;;;4786122;29;20062;-84
2022/06/14 04:34:13;;;;;;;3.08;0.80;;;10.70;99.90;;;;;;4801897;29;20516;-87
2022/06/14 04:36:54;;;;;;;2.78;1.20;;;10.70;99.90;;;;;;4800788;29;20113;-88
2022/06/14 04:39:30;;;;;;;3.13;0.70;;;10.70;99.90;;;;;;4866366;29;20057;-85
2022/06/14 04:42:05;;;;;;;2.65;0.80;;;10.70;99.90;;;;;;4874692;29;20057;-87
2022/06/14 04:44:54;;;;;;;1.13;0.60;;;10.80;99.90;;;;;;4860396;29;20041;-85
2022/06/14 04:47:38;;;;;;;2.38;0.77;;;11.40;99.90;;;;;;4868898;29;20057;-87
2022/06/14 04:50:26;;;;;;;1.70;0.88;;;11.50;99.90;;;;;;4876484;29;20084;-88
2022/06/14 04:52:58;;;;;;;2.20;0.75;;;11.10;99.90;;;;;;4878281;29;20049;-85
2022/06/14 04:55:47;;;;;;;2.13;0.85;;;12.10;99.90;;;;;;4906892;28;20087;-87
2022/06/14 04:58:28;;;;;;;2.60;0.70;;;11.20;99.90;;;;;;4964293;28;20051;-86
2022/06/14 05:00:59;;;;;;;1.35;0.63;;;11.30;99.90;;;;;;4960532;28;20058;-87
2022/06/14 05:03:29;;;;;;;1.65;0.70;;;11.20;99.90;;;;;;4977059;28;20105;-85
2022/06/14 05:06:08;;;;;;;4.75;0.90;;;12.20;99.90;;;;;;4959686;28;20415;-86
2022/06/14 05:08:41;;;;;;;5.68;0.90;;;11.60;99.90;;;;;;4949589;29;20090;-87
2022/06/14 05:11:48;;;;;;;1.60;0.65;;;11.60;99.90;;;;;;4968045;28;20087;-86
2022/06/14 05:14:17;;;;;;;2.25;0.60;;;11.70;99.90;;;;;;4946772;28;20059;-86
2022/06/14 05:17:18;;;;;;;1.95;0.73;;;11.80;99.90;;;;;;4978164;28;20042;-86
2022/06/14 05:20:07;;;;;;;1.23;0.52;;;11.80;99.90;;;;;;4897990;29;20160;-85
2022/06/14 05:22:55;;;;;;;2.20;0.60;;;12.00;99.90;;;;;;4882715;29;20052;-86
2022/06/14 05:25:21;;;;;;;5.07;1.05;;;12.10;99.90;;;;;;4898840;29;20092;-87
2022/06/14 05:27:53;;;;;;;2.15;0.70;;;12.20;99.90;;;;;;4896726;29;20163;-83
2022/06/14 05:30:34;;;;;;;3.83;1.52;;;12.30;99.90;;;;;;4896535;29;20052;-84
2022/06/14 05:33:35;;;;;;;3.13;0.90;;;12.50;99.90;;;;;;4878448;29;20053;-85
2022/06/14 05:36:00;;;;;;;4.07;0.80;;;12.60;99.90;;;;;;4830181;29;20050;-83
2022/06/14 05:38:34;;;;;;;3.60;0.60;;;13.10;99.90;;;;;;4822493;29;20053;-84
2022/06/14 05:41:08;;;;;;;7.30;0.80;;;12.80;99.90;;;;;;4822792;29;20058;-83
2022/06/14 05:43:39;;;;;;;2.92;0.70;;;12.90;99.90;;;;;;4841373;29;20057;-84
2022/06/14 05:46:44;;;;;;;2.08;0.80;;;13.00;99.90;;;;;;4832971;29;20046;-85
2022/06/14 05:49:32;;;;;;;4.05;1.02;;;13.20;99.90;;;;;;4804963;29;20059;-83
2022/06/14 05:52:42;;;;;;;1.33;0.60;;;13.50;99.90;;;;;;4789935;29;20065;-86
2022/06/14 05:55:26;;;;;;;0.98;0.60;;;13.40;99.90;;;;;;4821641;29;20115;-88
2022/06/14 05:57:58;;;;;;;1.58;0.55;;;13.50;99.90;;;;;;4842537;29;20060;-84
2022/06/14 06:00:34;;;;;;;2.00;0.93;;;13.50;99.90;;;;;;4861352;29;20513;-88
2022/06/14 06:03:11;;;;;;;2.63;0.75;;;13.60;99.90;;;;;;4861976;29;20479;-90
2022/06/14 06:05:51;;;;;;;1.67;0.60;;;13.60;99.90;;;;;;4866463;29;20053;-86
2022/06/14 06:08:30;;;;;;;2.97;0.63;;;13.70;99.90;;;;;;4846725;29;20094;-88
2022/06/14 06:11:03;;;;;;;1.30;0.52;;;13.80;99.90;;;;;;4867886;29;20045;-86
2022/06/14 06:13:50;;;;;;;2.15;0.82;;;13.80;99.90;;;;;;4878291;29;20060;-87
2022/06/14 06:19:29;;;;;;;2.75;0.50;;;14.00;99.90;;;;;;4877658;29;20060;-87
2022/06/14 06:22:06;;;;;;;2.70;0.60;;;14.20;99.90;;;;;;4871719;29;20060;-87
2022/06/14 06:24:59;;;;;;;2.15;0.60;;;14.40;99.90;;;;;;4877244;29;20064;-89
2022/06/14 06:27:52;;;;;;;2.53;0.65;;;14.50;99.90;;;;;;4905213;29;20076;-88
2022/06/14 06:30:28;;;;;;;1.73;0.40;;;14.70;99.90;;;;;;4889255;29;20056;-91
2022/06/14 06:32:55;;;;;;;1.92;0.70;;;14.80;99.90;;;;;;4913040;29;20048;-90
2022/06/14 06:35:38;;;;;;;4.32;0.60;;;15.00;99.90;;;;;;4898935;29;20084;-90
2022/06/14 06:38:33;;;;;;;3.08;0.50;;;14.60;99.90;;;;;;4890710;29;20060;-87
2022/06/14 06:43:59;;;;;;;3.65;0.75;;;15.30;99.90;;;;;;4880965;29;20056;-86
2022/06/14 06:46:30;;;;;;;4.38;0.95;;;15.60;99.90;;;;;;4896866;29;20051;-87
2022/06/14 06:49:01;;;;;;;2.38;0.75;;;15.60;99.90;;;;;;4865580;29;20043;-87
2022/06/14 06:51:39;;;;;;;3.53;0.70;;;15.70;99.90;;;;;;4880818;29;20051;-87
2022/06/14 06:54:30;;;;;;;5.30;0.80;;;16.20;99.90;;;;;;4865203;29;20053;-87
2022/06/14 06:56:59;;;;;;;2.95;0.70;;;16.10;99.90;;;;;;4919991;29;20508;-87
2022/06/14 06:59:33;;;;;;;0.98;0.50;;;16.20;99.90;;;;;;4938299;29;20086;-86
2022/06/14 07:02:04;;;;;;;2.25;0.68;;;16.30;99.90;;;;;;4938747;29;20412;-87
2022/06/14 07:08:01;;;;;;;3.53;0.73;;;16.70;99.90;;;;;;4938245;29;20141;-87
2022/06/14 07:10:29;;;;;;;3.00;0.70;;;17.00;99.90;;;;;;4861844;29;20049;-88
2022/06/14 07:13:04;;;;;;;2.92;0.60;;;17.10;99.90;;;;;;4861375;29;20061;-87
2022/06/14 07:15:33;;;;;;;1.48;0.60;;;17.30;99.90;;;;;;4862103;29;20065;-87
2022/06/14 07:18:25;;;;;;;2.35;0.63;;;17.30;99.90;;;;;;4861905;29;20053;-87
2022/06/14 07:21:13;;;;;;;1.52;0.50;;;17.10;99.90;;;;;;4862107;29;20140;-86
2022/06/14 07:23:45;;;;;;;2.15;0.50;;;17.50;99.90;;;;;;4877130;29;20064;-86
2022/06/14 07:26:23;;;;;;;2.58;0.60;;;17.60;99.90;;;;;;4877312;29;20414;-87
2022/06/14 07:28:57;;;;;;;2.13;0.70;;;17.80;99.90;;;;;;4861904;29;20053;-87
2022/06/14 07:31:32;;;;;;;2.80;0.50;;;18.00;99.90;;;;;;4861785;29;20057;-86
2022/06/14 07:34:02;;;;;;;1.67;0.50;;;18.10;99.90;;;;;;4877342;29;20068;-87
2022/06/14 07:36:45;;;;;;;2.22;0.55;;;18.20;99.90;;;;;;4861930;29;20072;-87
2022/06/14 07:39:39;;;;;;;2.72;0.75;;;18.30;99.90;;;;;;4876950;29;20116;-87
2022/06/14 07:42:14;;;;;;;3.45;0.68;;;18.50;99.90;;;;;;4877069;29;20108;-86
2022/06/14 07:44:48;;;;;;;1.97;0.50;;;18.60;99.90;;;;;;4861662;29;20049;-87
2022/06/14 07:47:32;;;;;;;4.03;0.77;;;18.40;99.90;;;;;;4928024;29;20297;-87
2022/06/14 07:50:16;;;;;;;2.03;0.60;;;19.10;99.90;;;;;;4937749;29;20062;-87
2022/06/14 07:53:11;;;;;;;3.05;0.77;;;18.80;99.90;;;;;;4937580;29;20404;-87
2022/06/14 07:55:45;;;;;;;2.88;0.60;;;19.00;99.90;;;;;;4861522;29;20098;-87
2022/06/14 07:58:31;;;;;;;1.47;0.40;;;19.10;99.90;;;;;;4876726;29;20049;-88
2022/06/14 08:01:08;;;;;;;;;;;19.00;99.90;;;;;;4861792;29;20401;-87
2022/06/14 08:04:00;;;;;;;1.95;0.32;;;19.30;99.90;;;;;;4861096;29;19976;-87
2022/06/14 08:06:31;;;;;;;2.15;0.40;;;19.40;99.90;;;;;;4862134;29;20107;-87
2022/06/14 08:09:01;;;;;;;4.63;0.70;;;19.70;99.90;;;;;;4861722;29;20099;-87
2022/06/14 08:11:57;;;;;;;1.48;0.20;;;19.40;99.90;;;;;;4861156;29;20060;-86
2022/06/14 08:14:45;;;;;;;3.67;0.38;;;19.20;99.90;;;;;;4860680;29;20144;-86
2022/06/14 08:17:20;;;;;;;2.17;0.40;;;19.10;99.90;;;;;;4861536;29;20045;-86
2022/06/14 08:19:59;;;;;;;3.03;0.30;;;19.00;99.90;;;;;;4861392;29;20143;-86
2022/06/14 08:22:35;;;;;;;2.03;0.45;;;19.30;99.90;;;;;;4861093;29;20068;-87
2022/06/14 08:25:08;;;;;;;1.77;0.22;;;19.50;99.90;;;;;;4863639;29;20112;-87
2022/06/14 08:27:44;;;;;;;1.17;0.52;;;19.70;99.90;;;;;;4864967;29;20426;-87
2022/06/14 08:30:34;;;;;;;2.28;0.50;;;20.10;99.90;;;;;;4864814;29;20056;-87
2022/06/14 08:33:16;;;;;;;2.80;0.30;;;20.30;99.90;;;;;;4931467;29;20425;-86
2022/06/14 08:35:55;;;;;;;1.80;0.70;;;20.50;99.90;;;;;;4941144;29;20043;-87
2022/06/14 08:38:34;;;;;;;1.23;0.40;;;20.60;99.90;;;;;;4941244;29;20396;-86
2022/06/14 08:41:44;;;;;;;1.73;0.40;;;20.40;99.90;;;;;;4958070;29;20062;-87
2022/06/14 08:44:22;;;;;;;1.55;0.40;;;20.40;99.90;;;;;;4957895;29;20046;-86
2022/06/14 08:47:02;;;;;;;3.38;0.38;;;20.50;99.90;;;;;;4940527;29;20107;-87
2022/06/14 08:49:47;;;;;;;0.77;0.30;;;20.90;99.90;;;;;;4940886;29;20058;-86
2022/06/14 08:52:53;;;;;;;2.00;0.40;;;21.20;99.80;;;;;;4940613;29;20051;-86
2022/06/14 08:55:48;;;;;;;2.40;0.35;;;21.30;99.10;;;;;;4941172;29;20153;-87
2022/06/14 08:59:02;;;;;;;1.33;0.40;;;21.20;99.90;;;;;;4940586;29;20048;-86
2022/06/14 09:02:04;;;;;;;1.55;0.15;;;21.10;98.20;;;;;;4879771;29;20205;-86
2022/06/14 09:04:35;;;;;;;1.48;0.30;;;20.90;99.90;;;;;;4864542;29;20475;-87
2022/06/14 09:07:25;;;;;;;1.13;0.50;;;20.80;99.90;;;;;;4849068;29;20448;-87
2022/06/14 09:10:05;;;;;;;3.58;0.52;;;20.70;99.90;;;;;;4879877;29;20053;-86
2022/06/14 09:12:46;;;;;;;2.20;0.40;;;20.50;99.70;;;;;;4848544;29;20092;-86
2022/06/14 09:15:21;;;;;;;2.35;0.50;;;20.50;99.90;;;;;;4864040;29;20173;-86
2022/06/14 09:17:59;;;;;;;2.00;0.50;;;20.40;99.90;;;;;;4864078;29;20085;-86
2022/06/14 09:20:46;;;;;;;1.25;0.30;;;20.30;99.90;;;;;;4864257;29;20542;-86
2022/06/14 09:23:19;;;;;;;1.25;0.30;;;20.40;99.90;;;;;;4879685;29;20057;-86
2022/06/14 09:25:45;;;;;;;1.48;0.43;;;20.80;99.90;;;;;;4879646;29;20449;-86
2022/06/14 09:28:30;;;;;;;2.10;0.52;;;20.90;99.90;;;;;;4879587;29;20044;-86
2022/06/14 09:31:12;;;;;;;2.20;0.60;;;20.90;98.50;;;;;;4848847;29;20108;-87
2022/06/14 09:34:22;;;;;;;0.88;0.30;;;20.90;99.90;;;;;;4864048;29;20055;-86
2022/06/14 09:36:48;;;;;;;2.92;0.38;;;20.90;99.90;;;;;;4831274;29;20272;-87
2022/06/14 09:39:34;;;;;;;1.25;0.30;;;20.90;99.90;;;;;;4920807;29;20080;-86
2022/06/14 09:42:40;;;;;;;3.15;0.45;;;20.90;99.90;;;;;;4909357;29;20499;-86
2022/06/14 09:45:35;;;;;;;0.55;0.20;;;21.00;99.90;;;;;;4902519;29;20071;-86
2022/06/14 09:48:35;;;;;;;0.80;0.32;;;21.20;99.90;;;;;;4928530;29;20052;-86
2022/06/14 09:51:22;;;;;;;4.15;0.40;;;21.40;98.50;;;;;;4909033;29;20048;-87
2022/06/14 09:54:09;;;;;;;2.65;0.30;;;21.40;99.80;;;;;;4901513;29;20535;-87
2022/06/14 09:56:46;;;;;;;0.80;0.30;;;21.50;99.40;;;;;;4901018;29;20497;-86
2022/06/14 09:59:44;;;;;;;0.85;0.20;;;21.80;98.50;;;;;;4900911;29;20060;-86
2022/06/14 10:02:22;;;;;;;1.27;0.20;;;21.90;99.40;;;;;;4916351;29;20131;-86
2022/06/14 10:05:21;;;;;;;1.70;0.43;;;22.10;98.10;;;;;;4916230;29;20119;-87
2022/06/14 10:08:18;;;;;;;0.57;0.20;;;22.50;99.00;;;;;;4899865;29;20150;-86
2022/06/14 10:11:08;;;;;;;2.05;0.30;;;22.60;94.10;;;;;;4916141;29;20629;-87
2022/06/14 10:14:07;;;;;;;2.50;0.20;;;22.70;97.90;;;;;;4956205;29;20054;-87
2022/06/14 10:17:12;;;;;;;0.60;0.20;;;22.80;97.70;;;;;;4951601;28;20058;-87
2022/06/14 10:19:56;;;;;;;0.60;0.20;;;22.70;95.10;;;;;;4881755;29;20533;-85
2022/06/14 10:22:43;;;;;;;1.73;0.25;;;22.40;96.60;;;;;;4881530;29;20048;-86
2022/06/14 10:25:29;;;;;;;0.90;0.20;;;22.10;97.70;;;;;;4896842;29;20067;-86
2022/06/14 10:28:13;;;;;;;0.32;0.13;;;22.10;97.90;;;;;;4897144;29;20055;-86
2022/06/14 10:30:57;;;;;;;1.38;0.20;;;22.00;97.90;;;;;;4896589;29;20551;-86
2022/06/14 10:33:33;;;;;;;1.20;0.30;;;21.70;98.30;;;;;;4881432;29;20052;-86
2022/06/14 10:36:31;;;;;;;1.70;0.30;;;21.50;98.20;;;;;;4896690;29;20048;-86
2022/06/14 10:39:12;;;;;;;2.45;0.43;;;21.60;97.70;;;;;;4881180;29;20085;-86
2022/06/14 10:41:49;;;;;;;1.95;0.60;;;21.20;99.20;;;;;;4881205;29;20625;-86
2022/06/14 10:44:35;;;;;;;1.92;0.50;;;21.10;98.60;;;;;;4896590;29;20131;-85
2022/06/14 10:47:19;;;;;;;5.07;0.80;;;20.60;99.80;;;;;;4881452;29;20489;-86
2022/06/14 10:50:05;;;;;;;4.50;0.60;;;20.40;99.90;;;;;;4895859;29;20083;-86
2022/06/14 10:52:52;;;;;;;2.97;0.50;;;20.20;99.90;;;;;;4880932;29;20052;-86
2022/06/14 10:55:55;;;;;;;2.20;0.40;;;19.90;99.90;;;;;;4896415;29;20040;-87
2022/06/14 10:58:30;;;;;;;1.15;0.38;;;19.60;99.90;;;;;;4957867;28;20046;-86
2022/06/14 11:01:37;;;;;;;3.28;0.50;;;19.70;99.90;;;;;;4957470;28;20057;-85
2022/06/14 11:04:34;;;;;;;1.45;0.60;;;19.40;99.90;;;;;;4957337;28;20144;-87
2022/06/14 11:07:14;;;;;;;2.10;0.30;;;19.40;99.90;;;;;;4957332;28;20054;-87
2022/06/14 11:09:43;;;;;;;0.90;0.30;;;19.40;99.90;;;;;;4974426;28;20484;-86
2022/06/14 11:12:45;;;;;;;2.05;0.40;;;19.30;99.90;;;;;;4974366;28;20487;-86
2022/06/14 11:15:15;;;;;;;1.67;0.40;;;19.30;99.90;;;;;;4974331;28;20495;-86
2022/06/14 11:18:00;;;;;;;3.58;0.50;;;19.30;99.90;;;;;;4957115;28;20138;-85
2022/06/14 11:20:58;;;;;;;0.93;0.32;;;19.20;99.90;;;;;;4957330;28;20081;-86
2022/06/14 11:23:53;;;;;;;2.55;0.50;;;19.30;99.90;;;;;;4895864;29;20071;-86
2022/06/14 11:26:35;;;;;;;2.03;0.50;;;19.50;99.90;;;;;;4880611;29;20045;-86
2022/06/14 11:29:42;;;;;;;1.88;0.40;;;19.30;99.90;;;;;;4896024;29;20056;-85
2022/06/14 11:32:17;;;;;;;2.20;0.63;;;19.40;99.90;;;;;;4821885;29;20058;-86
2022/06/14 11:35:06;;;;;;;3.15;0.57;;;19.50;99.90;;;;;;4821163;29;20145;-87
2022/06/14 11:37:59;;;;;;;1.20;0.50;;;19.50;99.90;;;;;;4806666;29;20469;-89
2022/06/14 11:40:31;;;;;;;1.67;0.50;;;19.70;99.90;;;;;;4799173;29;20065;-86
2022/06/14 11:43:08;;;;;;;0.63;0.40;;;19.60;99.90;;;;;;4820860;29;20244;-87
2022/06/14 11:45:52;;;;;;;0.63;0.30;;;19.70;99.90;;;;;;4806442;29;20592;-86
2022/06/14 11:48:44;;;;;;;4.03;0.65;;;19.90;99.90;;;;;;4805766;29;20090;-86
2022/06/14 11:51:27;;;;;;;2.50;0.50;;;20.00;99.90;;;;;;4821015;29;20051;-87
2022/06/14 11:54:12;;;;;;;2.08;0.50;;;20.10;99.90;;;;;;4806091;29;20115;-88
2022/06/14 11:56:53;;;;;;;4.15;0.63;;;20.10;99.90;;;;;;4821188;29;20097;-86
2022/06/14 11:59:50;;;;;;;1.58;0.50;;;20.20;99.90;;;;;;4814642;29;20113;-85
2022/06/14 12:02:37;;;;;;;1.10;0.82;;;20.40;99.90;;;;;;4875032;29;20204;-86
2022/06/14 12:05:34;;;;;;;2.78;0.40;;;20.70;99.90;;;;;;4875532;29;20189;-86
2022/06/14 12:08:29;;;;;;;1.65;0.38;;;21.00;99.90;;;;;;4887216;28;20086;-86
2022/06/14 12:11:13;;;;;;;1.20;0.30;;;21.20;99.90;;;;;;4962358;28;20452;-87
2022/06/14 12:13:47;;;;;;;0.85;0.30;;;21.20;99.90;;;;;;4951894;28;20078;-88
2022/06/14 12:16:24;;;;;;;1.00;0.40;;;21.30;99.90;;;;;;4962284;28;20437;-89
2022/06/14 12:19:05;;;;;;;0.82;0.30;;;21.20;97.60;;;;;;4941417;28;20102;-87
2022/06/14 12:21:50;;;;;;;0.93;0.40;;;21.30;99.80;;;;;;4955233;28;20381;-86
2022/06/14 12:24:21;;;;;;;1.30;0.50;;;21.20;99.90;;;;;;4961793;28;20047;-85
2022/06/14 12:26:55;;;;;;;2.20;0.50;;;21.40;98.80;;;;;;4964236;28;20415;-86
2022/06/14 12:29:35;;;;;;;1.48;0.40;;;21.60;99.90;;;;;;4947911;28;20043;-87
2022/06/14 12:32:16;;;;;;;1.65;0.30;;;21.80;99.90;;;;;;4952124;29;20043;-87
2022/06/14 12:34:47;;;;;;;1.20;0.50;;;22.00;99.40;;;;;;4962261;28;20117;-86
2022/06/14 12:37:26;;;;;;;1.30;0.38;;;22.10;99.30;;;;;;4969868;28;20066;-86
2022/06/14 12:40:09;;;;;;;0.28;0.10;;;22.00;99.80;;;;;;4960226;28;20058;-87
2022/06/14 12:43:03;;;;;;;2.92;0.40;;;22.20;97.80;;;;;;4961911;28;20221;-85
2022/06/14 12:45:39;;;;;;;2.95;0.30;;;22.00;96.50;;;;;;4944677;29;20447;-87
2022/06/14 12:48:14;;;;;;;2.00;0.30;;;21.90;97.80;;;;;;4963370;28;20066;-87
2022/06/14 12:50:44;;;;;;;0.60;0.30;;;21.90;97.40;;;;;;4946559;28;20486;-87
2022/06/14 12:53:15;;;;;;;0.57;0.20;;;21.90;98.40;;;;;;4962627;28;20126;-88
2022/06/14 12:55:47;;;;;;;0.43;0.20;;;22.00;97.30;;;;;;4961579;28;20043;-87
2022/06/14 12:58:19;;;;;;;3.17;0.40;;;21.90;97.70;;;;;;4952560;28;20246;-87
2022/06/14 13:00:58;;;;;;;1.38;0.32;;;21.70;96.30;;;;;;4951149;28;20120;-87
2022/06/14 13:03:33;;;;;;;1.20;0.40;;;21.60;98.00;;;;;;4952172;28;20047;-86
2022/06/14 13:06:24;;;;;;;1.25;0.40;;;21.50;98.70;;;;;;4957163;28;20492;-87
2022/06/14 13:09:16;;;;;;;3.15;0.52;;;21.40;99.60;;;;;;4951370;28;20039;-87
2022/06/14 13:12:11;;;;;;;1.52;0.32;;;21.30;99.00;;;;;;4969778;28;20047;-86
2022/06/14 13:15:16;;;;;;;1.67;0.60;;;21.10;99.70;;;;;;4962141;28;20051;-85
2022/06/14 13:18:07;;;;;;;1.20;0.30;;;21.00;99.40;;;;;;4978740;28;20123;-86
2022/06/14 13:20:42;;;;;;;0.82;0.50;;;20.70;99.90;;;;;;4965677;28;20051;-87
2022/06/14 13:23:33;;;;;;;2.45;0.68;;;20.40;99.90;;;;;;4957445;29;20052;-86
2022/06/14 13:26:19;;;;;;;2.20;0.40;;;20.30;99.90;;;;;;4975072;28;20043;-86
2022/06/14 13:29:01;;;;;;;2.75;0.52;;;20.20;99.90;;;;;;4955799;28;20078;-86
2022/06/14 13:31:55;;;;;;;1.23;0.50;;;20.20;99.90;;;;;;4950674;29;20055;-87
2022/06/14 13:34:30;;;;;;;2.42;0.50;;;20.00;99.90;;;;;;4964756;28;20126;-87
2022/06/14 13:37:05;;;;;;;1.65;0.30;;;20.00;99.90;;;;;;4957573;28;20098;-86
2022/06/14 13:39:50;;;;;;;1.85;0.57;;;20.00;99.90;;;;;;4951504;29;20058;-86
2022/06/14 13:42:32;;;;;;;1.08;0.40;;;20.10;99.90;;;;;;4947745;28;20495;-84
2022/06/14 13:48:49;;;;;;;0.90;0.52;;;20.20;99.90;;;;;;4991321;23;20065;-87
2022/06/14 13:51:31;;;;;;;1.15;0.45;;;20.10;99.90;;;;;;4841404;29;20054;-85
2022/06/14 13:54:17;;;;;;;3.80;0.40;;;20.00;99.90;;;;;;4841706;29;20069;-85
2022/06/14 13:57:04;;;;;;;2.55;0.40;;;20.00;99.90;;;;;;4826492;29;20050;-86
2022/06/14 13:59:36;;;;;;;0.65;0.28;;;20.20;99.90;;;;;;4826510;29;20053;-86
2022/06/14 14:02:23;;;;;;;1.85;0.70;;;20.10;99.90;;;;;;4826425;29;20097;-86
2022/06/14 14:05:04;;;;;;;0.98;0.50;;;20.20;99.90;;;;;;4841562;29;20062;-84
2022/06/14 14:07:45;;;;;;;2.05;0.40;;;20.40;99.90;;;;;;4841509;29;20061;-85
2022/06/14 14:10:17;;;;;;;2.38;0.50;;;20.70;99.90;;;;;;4826402;29;20476;-85
2022/06/14 14:12:42;;;;;;;1.80;0.40;;;20.50;99.90;;;;;;4821804;29;20081;-86
2022/06/14 14:15:18;;;;;;;1.52;0.45;;;21.00;99.20;;;;;;4807565;29;20058;-85
2022/06/14 14:18:09;;;;;;;1.67;0.50;;;21.20;99.90;;;;;;4807777;29;20062;-86
2022/06/14 14:20:49;;;;;;;1.50;0.55;;;21.20;99.80;;;;;;4807896;29;20062;-85